createdAt,value
2023-05-20T00:00:53.906Z,11.30
2023-05-20T00:03:21.930Z,11.28
2023-05-20T00:05:49.399Z,11.27
2023-05-20T00:08:21.528Z,11.26
2023-05-20T00:10:48.880Z,11.24
2023-05-20T00:13:16.286Z,11.25
2023-05-20T00:15:43.645Z,11.25
2023-05-20T00:18:11.417Z,11.24
2023-05-20T00:20:38.905Z,11.22
2023-05-20T00:23:06.269Z,11.21
2023-05-20T00:25:33.848Z,11.20
2023-05-20T00:28:01.511Z,11.18
2023-05-20T00:30:28.969Z,11.17
2023-05-20T00:32:56.442Z,11.16
2023-05-20T00:35:25.494Z,11.16
2023-05-20T00:37:52.826Z,11.14
2023-05-20T00:40:22.042Z,11.14
2023-05-20T00:42:49.314Z,11.14
2023-05-20T00:45:17.217Z,11.11
2023-05-20T00:47:44.693Z,11.10
2023-05-20T00:50:12.138Z,11.09
2023-05-20T00:52:41.611Z,11.09
2023-05-20T00:55:09.573Z,11.08
2023-05-20T00:57:37.128Z,11.06
2023-05-20T01:00:05.952Z,11.04
2023-05-20T01:02:33.398Z,11.04
2023-05-20T01:05:01.338Z,11.02
2023-05-20T01:07:28.982Z,11.01
2023-05-20T01:09:56.635Z,10.98
2023-05-20T01:12:30.515Z,10.97
2023-05-20T01:15:13.360Z,10.93
2023-05-20T01:17:52.463Z,10.90
2023-05-20T01:20:25.189Z,10.87
2023-05-20T01:22:57.067Z,10.84
2023-05-20T01:25:25.385Z,10.82
2023-05-20T01:27:54.723Z,10.81
2023-05-20T01:30:29.772Z,10.77
2023-05-20T01:33:05.374Z,10.75
2023-05-20T01:35:33.791Z,10.73
2023-05-20T01:38:05.134Z,10.72
2023-05-20T01:40:33.924Z,10.69
2023-05-20T01:43:03.657Z,10.67
2023-05-20T01:45:32.632Z,10.66
2023-05-20T01:48:02.284Z,10.64
2023-05-20T01:50:32.788Z,10.62
2023-05-20T01:53:00.462Z,10.61
2023-05-20T01:55:28.120Z,10.60
2023-05-20T01:57:55.562Z,10.59
2023-05-20T02:00:23.111Z,10.58
2023-05-20T02:02:50.522Z,10.58
2023-05-20T02:05:17.959Z,10.58
2023-05-20T02:07:45.868Z,10.53
2023-05-20T02:10:13.862Z,10.52
2023-05-20T02:12:41.252Z,10.50
2023-05-20T02:15:09.248Z,10.49
2023-05-20T02:17:37.739Z,10.49
2023-05-20T02:20:07.680Z,10.49
2023-05-20T02:22:35.577Z,10.49
2023-05-20T02:25:04.443Z,10.48
2023-05-20T02:27:33.084Z,10.48
2023-05-20T02:30:00.921Z,10.49
2023-05-20T02:32:28.945Z,10.49
2023-05-20T02:34:56.594Z,10.50
2023-05-20T02:37:24.098Z,10.49
2023-05-20T02:39:51.521Z,10.49
2023-05-20T02:42:18.880Z,10.49
2023-05-20T02:44:46.492Z,10.49
2023-05-20T02:47:14.468Z,10.50
2023-05-20T02:49:42.215Z,10.50
2023-05-20T02:52:10.822Z,10.49
2023-05-20T02:54:38.387Z,10.51
2023-05-20T02:57:06.131Z,10.53
2023-05-20T02:59:33.512Z,10.56
2023-05-20T03:02:01.256Z,10.58
2023-05-20T03:04:28.700Z,10.61
2023-05-20T03:06:57.886Z,10.64
2023-05-20T03:09:25.581Z,10.66
2023-05-20T03:11:53.034Z,10.72
2023-05-20T03:14:20.380Z,10.76
2023-05-20T03:16:47.681Z,10.80
2023-05-20T03:19:16.454Z,10.84
2023-05-20T03:21:44.027Z,10.85
2023-05-20T03:24:11.566Z,10.89
2023-05-20T03:26:43.612Z,10.91
2023-05-20T03:29:11.032Z,10.93
2023-05-20T03:31:38.551Z,10.96
2023-05-20T03:34:06.124Z,10.97
2023-05-20T03:36:33.446Z,10.99
2023-05-20T03:39:02.491Z,11.00
2023-05-20T03:41:32.681Z,11.01
2023-05-20T03:44:00.173Z,11.00
2023-05-20T03:46:27.964Z,11.02
2023-05-20T03:48:55.343Z,11.01
2023-05-20T03:51:22.972Z,11.00
2023-05-20T03:53:51.665Z,11.00
2023-05-20T03:56:19.322Z,11.00
2023-05-20T03:58:47.741Z,11.01
2023-05-20T04:01:15.455Z,11.00
2023-05-20T04:03:43.720Z,11.01
2023-05-20T04:06:11.650Z,11.00
2023-05-20T04:08:39.211Z,11.01
2023-05-20T04:11:07.012Z,11.03
2023-05-20T04:13:37.050Z,11.12
2023-05-20T04:16:05.570Z,11.33
2023-05-20T04:18:32.934Z,11.48
2023-05-20T04:21:01.955Z,11.74
2023-05-20T04:23:33.076Z,11.92
2023-05-20T04:26:02.741Z,12.10
2023-05-20T04:28:32.101Z,12.52
2023-05-20T04:31:07.184Z,13.06
2023-05-20T04:33:39.794Z,13.61
2023-05-20T04:36:12.246Z,14.09
2023-05-20T04:38:42.433Z,14.65
2023-05-20T04:41:09.753Z,15.21
2023-05-20T04:43:39.010Z,15.60
2023-05-20T04:46:06.794Z,16.09
2023-05-20T04:48:35.851Z,16.48
2023-05-20T04:51:03.672Z,16.96
2023-05-20T04:53:34.258Z,17.26
2023-05-20T04:56:02.303Z,17.53
2023-05-20T04:58:31.994Z,17.84
2023-05-20T05:01:00.167Z,18.15
2023-05-20T05:03:28.141Z,18.48
2023-05-20T05:05:59.195Z,18.54
2023-05-20T05:08:27.089Z,18.79
2023-05-20T05:10:54.802Z,19.18
2023-05-20T05:13:22.434Z,19.41
2023-05-20T05:16:01.498Z,19.12
2023-05-20T05:18:30.612Z,19.01
2023-05-20T05:21:05.836Z,18.84
2023-05-20T05:23:35.312Z,19.05
2023-05-20T05:26:03.028Z,19.36
2023-05-20T05:28:30.714Z,19.48
2023-05-20T05:30:59.247Z,19.56
2023-05-20T05:33:26.989Z,19.62
2023-05-20T05:35:58.979Z,19.53
2023-05-20T05:38:26.546Z,19.60
2023-05-20T05:40:53.837Z,19.48
2023-05-20T05:43:21.812Z,19.69
2023-05-20T05:45:49.803Z,19.64
2023-05-20T05:48:17.268Z,19.42
2023-05-20T05:50:46.187Z,19.25
2023-05-20T05:53:15.295Z,19.23
2023-05-20T05:55:48.648Z,19.33
2023-05-20T05:58:17.221Z,19.30
2023-05-20T06:00:44.789Z,19.16
2023-05-20T06:03:13.137Z,18.89
2023-05-20T06:05:46.619Z,18.73
2023-05-20T06:08:16.543Z,18.46
2023-05-20T06:10:51.094Z,18.02
2023-05-20T06:13:18.684Z,17.81
2023-05-20T06:15:46.477Z,17.72
2023-05-20T06:18:14.134Z,17.52
2023-05-20T06:20:42.903Z,17.05
2023-05-20T06:23:10.270Z,17.00
2023-05-20T06:25:59.109Z,16.90
2023-05-20T06:28:32.099Z,16.70
2023-05-20T06:30:59.695Z,16.44
2023-05-20T06:33:29.890Z,16.26
2023-05-20T06:36:02.853Z,16.14
2023-05-20T06:38:31.877Z,15.99
2023-05-20T06:40:59.218Z,15.74
2023-05-20T06:43:26.491Z,15.45
2023-05-20T06:46:03.384Z,15.46
2023-05-20T06:48:36.119Z,15.67
2023-05-20T06:51:11.274Z,15.88
2023-05-20T06:53:39.707Z,15.99
2023-05-20T06:56:07.779Z,15.92
2023-05-20T06:58:36.234Z,15.94
2023-05-20T07:01:05.439Z,15.84
2023-05-20T07:03:32.976Z,15.60
2023-05-20T07:06:00.369Z,15.52
2023-05-20T07:08:27.825Z,15.54
2023-05-20T07:10:56.700Z,15.51
2023-05-20T07:13:26.025Z,15.36
2023-05-20T07:15:53.535Z,15.22
2023-05-20T07:18:21.772Z,15.12
2023-05-20T07:20:53.567Z,15.08
2023-05-20T07:23:43.834Z,15.16
2023-05-20T07:26:11.220Z,15.31
2023-05-20T07:28:39.372Z,15.56
2023-05-20T07:31:06.763Z,15.72
2023-05-20T07:33:40.137Z,15.83
2023-05-20T07:36:09.715Z,15.82
2023-05-20T07:38:41.093Z,15.77
2023-05-20T07:41:09.991Z,15.65
2023-05-20T07:43:37.511Z,15.74
2023-05-20T07:46:07.085Z,15.81
2023-05-20T07:48:34.732Z,15.90
2023-05-20T07:51:02.748Z,15.86
2023-05-20T07:53:31.937Z,15.73
2023-05-20T07:55:59.629Z,15.77
2023-05-20T07:58:32.010Z,15.70
2023-05-20T08:00:59.594Z,15.75
2023-05-20T08:03:27.305Z,15.76
2023-05-20T08:06:00.765Z,15.70
2023-05-20T08:08:30.641Z,15.71
2023-05-20T08:11:05.104Z,15.76
2023-05-20T08:13:33.258Z,15.76
2023-05-20T08:16:04.137Z,15.81
2023-05-20T08:18:35.642Z,15.89
2023-05-20T08:21:02.938Z,15.92
2023-05-20T08:23:31.288Z,15.96
2023-05-20T08:26:04.513Z,16.09
2023-05-20T08:28:33.981Z,16.16
2023-05-20T08:31:04.440Z,16.13
2023-05-20T08:33:33.362Z,16.23
2023-05-20T08:36:01.005Z,16.24
2023-05-20T08:38:29.520Z,16.21
2023-05-20T08:40:57.882Z,16.28
2023-05-20T08:43:26.826Z,16.29
2023-05-20T08:45:55.263Z,16.36
2023-05-20T08:48:28.380Z,16.38
2023-05-20T08:50:57.960Z,16.43
2023-05-20T08:53:26.811Z,16.47
2023-05-20T08:56:01.498Z,16.54
2023-05-20T08:58:35.204Z,16.56
2023-05-20T09:01:03.332Z,16.58
2023-05-20T09:03:32.201Z,16.57
2023-05-20T09:06:09.621Z,16.60
2023-05-20T09:08:37.331Z,16.66
2023-05-20T09:11:05.044Z,16.80
2023-05-20T09:13:41.970Z,16.79
2023-05-20T09:16:11.679Z,16.81
2023-05-20T09:18:40.408Z,16.86
2023-05-20T09:21:07.793Z,16.91
2023-05-20T09:23:38.545Z,16.97
2023-05-20T09:26:06.262Z,17.07
2023-05-20T09:28:33.852Z,17.14
2023-05-20T09:31:01.561Z,17.07
2023-05-20T09:33:33.013Z,17.14
2023-05-20T09:36:23.589Z,17.13
2023-05-20T09:38:55.928Z,17.14
2023-05-20T09:41:26.975Z,17.18
2023-05-20T09:43:55.197Z,17.23
2023-05-20T09:46:23.994Z,17.27
2023-05-20T09:48:51.584Z,17.34
2023-05-20T09:51:19.297Z,17.43
2023-05-20T09:53:47.070Z,17.44
2023-05-20T09:56:15.026Z,17.48
2023-05-20T09:58:45.611Z,17.57
2023-05-20T10:01:13.580Z,17.67
2023-05-20T10:03:44.184Z,17.72
2023-05-20T10:06:26.223Z,17.72
2023-05-20T10:08:58.752Z,17.81
2023-05-20T10:12:02.852Z,17.90
2023-05-20T10:15:08.911Z,17.98
2023-05-20T10:18:04.835Z,18.01
2023-05-20T10:20:32.268Z,18.00
2023-05-20T10:22:59.621Z,18.11
2023-05-20T10:25:28.717Z,18.18
2023-05-20T10:28:15.100Z,18.19
2023-05-20T10:30:50.618Z,18.20
2023-05-20T10:33:19.463Z,18.28
2023-05-20T10:35:53.556Z,18.37
2023-05-20T10:38:21.689Z,18.50
2023-05-20T10:40:49.020Z,18.62
2023-05-20T10:43:36.862Z,18.68
2023-05-20T10:46:07.497Z,18.68
2023-05-20T10:48:42.389Z,18.69
2023-05-20T10:51:15.116Z,18.76
2023-05-20T10:53:46.289Z,18.89
2023-05-20T10:56:21.970Z,18.93
2023-05-20T10:58:50.732Z,18.89
2023-05-20T11:01:22.084Z,18.66
2023-05-20T11:03:50.171Z,18.47
2023-05-20T11:06:19.093Z,18.36
2023-05-20T11:08:47.176Z,18.29
2023-05-20T11:11:15.434Z,18.45
2023-05-20T11:13:42.947Z,18.62
2023-05-20T11:16:10.405Z,18.70
2023-05-20T11:18:37.947Z,18.75
2023-05-20T11:21:05.337Z,18.67
2023-05-20T11:23:32.976Z,18.55
2023-05-20T11:26:00.320Z,18.34
2023-05-20T11:28:27.800Z,18.28
2023-05-20T11:30:55.724Z,18.24
2023-05-20T11:33:27.011Z,18.09
2023-05-20T11:35:54.964Z,18.06
2023-05-20T11:38:22.390Z,18.06
2023-05-20T11:40:54.741Z,18.16
2023-05-20T11:43:23.935Z,18.24
2023-05-20T11:46:00.877Z,18.42
2023-05-20T11:48:28.478Z,18.48
2023-05-20T11:50:57.022Z,18.54
2023-05-20T11:53:25.428Z,18.50
2023-05-20T11:55:57.877Z,18.40
2023-05-20T11:58:27.600Z,18.31
2023-05-20T12:01:05.254Z,18.45
2023-05-20T12:03:41.484Z,18.59
2023-05-20T12:06:12.116Z,18.47
2023-05-20T12:08:39.868Z,18.53
2023-05-20T12:11:08.554Z,18.73
2023-05-20T12:13:37.739Z,18.72
2023-05-20T12:16:06.113Z,18.82
2023-05-20T12:18:33.627Z,18.86
2023-05-20T12:21:01.647Z,18.91
2023-05-20T12:23:31.073Z,18.95
2023-05-20T12:25:58.367Z,19.11
2023-05-20T12:28:25.700Z,19.36
2023-05-20T12:30:53.267Z,19.42
2023-05-20T12:33:20.926Z,19.44
2023-05-20T12:35:49.754Z,19.53
2023-05-20T12:38:17.090Z,19.48
2023-05-20T12:40:44.885Z,19.49
2023-05-20T12:43:12.735Z,19.64
2023-05-20T12:45:40.050Z,19.79
2023-05-20T12:48:08.058Z,19.70
2023-05-20T12:50:41.620Z,19.50
2023-05-20T12:53:09.042Z,19.29
2023-05-20T12:55:36.363Z,19.14
2023-05-20T12:58:04.736Z,19.20
2023-05-20T13:00:32.010Z,19.37
2023-05-20T13:02:59.786Z,19.54
2023-05-20T13:05:27.491Z,19.42
2023-05-20T13:07:54.877Z,19.37
2023-05-20T13:10:22.495Z,19.35
2023-05-20T13:12:49.746Z,19.32
2023-05-20T13:15:17.883Z,19.22
2023-05-20T13:17:46.463Z,19.27
2023-05-20T13:20:14.104Z,19.45
2023-05-20T13:22:41.480Z,19.52
2023-05-20T13:25:09.643Z,19.48
2023-05-20T13:27:36.937Z,19.43
2023-05-20T13:30:06.267Z,19.23
2023-05-20T13:32:34.011Z,19.09
2023-05-20T13:35:01.798Z,18.97
2023-05-20T13:37:30.028Z,19.08
2023-05-20T13:39:58.906Z,19.07
2023-05-20T13:42:54.310Z,19.00
2023-05-20T13:45:23.606Z,18.98
2023-05-20T13:47:51.782Z,18.98
2023-05-20T13:50:22.796Z,18.89
2023-05-20T13:52:50.223Z,18.82
2023-05-20T13:55:17.749Z,18.83
2023-05-20T13:57:45.348Z,18.89
2023-05-20T14:00:13.587Z,18.95
2023-05-20T14:02:40.944Z,19.03
2023-05-20T14:05:10.040Z,19.11
2023-05-20T14:07:37.830Z,19.17
2023-05-20T14:10:06.557Z,18.93
2023-05-20T14:12:33.896Z,18.77
2023-05-20T14:15:04.368Z,18.73
2023-05-20T14:17:31.951Z,18.88
2023-05-20T14:20:00.871Z,18.95
2023-05-20T14:22:28.140Z,18.82
2023-05-20T14:24:55.685Z,18.68
2023-05-20T14:27:23.125Z,18.63
2023-05-20T14:29:50.545Z,18.62
2023-05-20T14:32:17.937Z,18.64
2023-05-20T14:34:47.148Z,18.81
2023-05-20T14:37:15.518Z,18.88
2023-05-20T14:39:42.799Z,18.93
2023-05-20T14:42:10.073Z,18.84
2023-05-20T14:44:37.630Z,18.75
2023-05-20T14:47:05.223Z,18.60
2023-05-20T14:49:32.947Z,18.57
2023-05-20T14:52:00.532Z,18.52
2023-05-20T14:54:27.997Z,18.54
2023-05-20T14:56:55.661Z,18.52
2023-05-20T14:59:23.053Z,18.51
2023-05-20T15:01:50.618Z,18.49
2023-05-20T15:04:18.112Z,18.43
2023-05-20T15:06:45.402Z,18.37
2023-05-20T15:09:13.472Z,18.33
2023-05-20T15:11:41.009Z,18.26
2023-05-20T15:14:08.273Z,18.21
2023-05-20T15:16:37.188Z,18.17
2023-05-20T15:19:04.655Z,18.12
2023-05-20T15:21:32.283Z,18.12
2023-05-20T15:24:00.564Z,18.04
2023-05-20T15:26:28.135Z,18.04
2023-05-20T15:28:55.394Z,18.05
2023-05-20T15:31:23.644Z,18.01
2023-05-20T15:33:53.328Z,17.94
2023-05-20T15:36:20.661Z,17.87
2023-05-20T15:38:48.054Z,17.78
2023-05-20T15:41:16.177Z,17.70
2023-05-20T15:43:43.733Z,17.60
2023-05-20T15:46:11.759Z,17.58
2023-05-20T15:48:39.267Z,17.60
2023-05-20T15:51:06.582Z,17.55
2023-05-20T15:53:33.849Z,17.47
2023-05-20T15:56:01.498Z,17.44
2023-05-20T15:58:28.829Z,17.48
2023-05-20T16:00:56.355Z,17.52
2023-05-20T16:03:23.821Z,17.53
2023-05-20T16:05:51.134Z,17.47
2023-05-20T16:08:20.746Z,17.33
2023-05-20T16:10:48.008Z,17.24
2023-05-20T16:13:15.513Z,17.18
2023-05-20T16:15:43.104Z,17.12
2023-05-20T16:18:11.096Z,17.07
2023-05-20T16:20:38.783Z,17.04
2023-05-20T16:23:06.095Z,16.99
2023-05-20T16:25:33.374Z,16.92
2023-05-20T16:28:01.106Z,16.82
2023-05-20T16:30:28.448Z,16.79
2023-05-20T16:32:56.028Z,16.76
2023-05-20T16:35:23.298Z,16.73
2023-05-20T16:37:50.758Z,16.68
2023-05-20T16:40:18.040Z,16.67
2023-05-20T16:42:45.623Z,16.60
2023-05-20T16:45:12.850Z,16.54
2023-05-20T16:47:40.145Z,16.52
2023-05-20T16:50:08.246Z,16.51
2023-05-20T16:52:37.853Z,16.51
2023-05-20T16:55:08.185Z,16.51
2023-05-20T16:57:36.347Z,16.49
2023-05-20T17:00:09.914Z,16.47
2023-05-20T17:02:37.249Z,16.50
2023-05-20T17:05:04.883Z,16.52
2023-05-20T17:07:33.570Z,16.52
2023-05-20T17:10:01.159Z,16.51
2023-05-20T17:12:28.532Z,16.51
2023-05-20T17:14:55.820Z,16.44
2023-05-20T17:17:23.080Z,16.45
2023-05-20T17:19:50.429Z,16.46
2023-05-20T17:22:18.197Z,16.44
2023-05-20T17:24:45.521Z,16.44
2023-05-20T17:27:12.959Z,16.40
2023-05-20T17:29:40.656Z,16.40
2023-05-20T17:32:07.983Z,16.41
2023-05-20T17:34:35.758Z,16.42
2023-05-20T17:37:03.262Z,16.38
2023-05-20T17:39:31.929Z,16.29
2023-05-20T17:41:59.369Z,16.22
2023-05-20T17:44:26.757Z,16.17
2023-05-20T17:46:54.066Z,16.17
2023-05-20T17:49:22.295Z,16.14
2023-05-20T17:51:49.909Z,16.14
2023-05-20T17:54:17.823Z,16.07
2023-05-20T17:56:47.713Z,16.04
2023-05-20T17:59:15.641Z,16.03
2023-05-20T18:01:43.256Z,16.03
2023-05-20T18:04:11.079Z,16.03
2023-05-20T18:06:38.415Z,16.05
2023-05-20T18:09:06.002Z,16.08
2023-05-20T18:11:34.437Z,16.08
2023-05-20T18:14:04.275Z,16.07
2023-05-20T18:16:32.059Z,16.07
2023-05-20T18:18:59.390Z,16.05
2023-05-20T18:21:26.757Z,16.04
2023-05-20T18:23:54.370Z,16.04
2023-05-20T18:26:21.733Z,16.00
2023-05-20T18:28:49.990Z,15.98
2023-05-20T18:31:17.370Z,15.95
2023-05-20T18:33:44.627Z,15.94
2023-05-20T18:36:12.048Z,15.92
2023-05-20T18:38:41.338Z,15.88
2023-05-20T18:41:09.419Z,15.83
2023-05-20T18:43:36.709Z,15.81
2023-05-20T18:46:04.365Z,15.78
2023-05-20T18:48:32.119Z,15.74
2023-05-20T18:50:59.471Z,15.73
2023-05-20T18:53:26.877Z,15.73
2023-05-20T18:55:54.336Z,15.71
2023-05-20T18:58:21.757Z,15.69
2023-05-20T19:00:49.195Z,15.68
2023-05-20T19:03:17.100Z,15.68
2023-05-20T19:05:44.666Z,15.68
2023-05-20T19:08:12.049Z,15.67
2023-05-20T19:10:39.583Z,15.63
2023-05-20T19:13:06.977Z,15.62
2023-05-20T19:15:34.824Z,15.58
2023-05-20T19:18:04.314Z,15.55
2023-05-20T19:20:36.859Z,15.53
2023-05-20T19:23:04.130Z,15.53
2023-05-20T19:25:31.742Z,15.50
2023-05-20T19:27:59.045Z,15.45
2023-05-20T19:30:26.489Z,15.44
2023-05-20T19:32:53.770Z,15.44
2023-05-20T19:35:21.431Z,15.42
2023-05-20T19:37:48.844Z,15.38
2023-05-20T19:40:16.246Z,15.32
2023-05-20T19:42:43.525Z,15.30
2023-05-20T19:45:11.379Z,15.31
2023-05-20T19:47:39.036Z,15.30
2023-05-20T19:50:06.763Z,15.26
2023-05-20T19:52:34.401Z,15.25
2023-05-20T19:55:02.031Z,15.24
2023-05-20T19:57:29.425Z,15.22
2023-05-20T19:59:56.856Z,15.20
2023-05-20T20:02:24.218Z,15.17
2023-05-20T20:04:51.772Z,15.16
2023-05-20T20:07:19.403Z,15.17
2023-05-20T20:09:48.428Z,15.12
2023-05-20T20:12:15.874Z,15.09
2023-05-20T20:14:43.326Z,15.06
2023-05-20T20:17:13.800Z,15.07
2023-05-20T20:19:42.358Z,15.07
2023-05-20T20:22:09.773Z,15.05
2023-05-20T20:24:37.101Z,15.02
2023-05-20T20:27:05.700Z,15.01
2023-05-20T20:29:33.131Z,14.99
2023-05-20T20:32:00.577Z,14.96
2023-05-20T20:34:27.869Z,14.93
2023-05-20T20:36:55.297Z,14.90
2023-05-20T20:39:25.170Z,14.90
2023-05-20T20:41:52.603Z,14.89
2023-05-20T20:44:23.268Z,14.86
2023-05-20T20:46:51.279Z,14.84
2023-05-20T20:49:19.418Z,14.80
2023-05-20T20:51:47.516Z,14.78
2023-05-20T20:54:15.069Z,14.74
2023-05-20T20:56:45.417Z,14.73
2023-05-20T20:59:13.602Z,14.72
2023-05-20T21:01:44.919Z,14.69
2023-05-20T21:04:13.798Z,14.66
2023-05-20T21:06:47.253Z,14.64
2023-05-20T21:09:15.167Z,14.61
2023-05-20T21:11:45.287Z,14.59
2023-05-20T21:14:13.153Z,14.56
2023-05-20T21:16:42.186Z,14.55
2023-05-20T21:19:09.736Z,14.53
2023-05-20T21:21:37.288Z,14.50
2023-05-20T21:24:04.667Z,14.52
2023-05-20T21:26:32.027Z,14.49
2023-05-20T21:28:59.274Z,14.48
2023-05-20T21:31:26.754Z,14.47
2023-05-20T21:33:54.102Z,14.43
2023-05-20T21:36:22.018Z,14.41
2023-05-20T21:38:49.302Z,14.36
2023-05-20T21:41:16.788Z,14.33
2023-05-20T21:43:44.269Z,14.28
2023-05-20T21:46:11.663Z,14.23
2023-05-20T21:48:39.243Z,14.17
2023-05-20T21:51:06.529Z,14.13
2023-05-20T21:53:33.844Z,14.08
2023-05-20T21:56:01.205Z,14.06
2023-05-20T21:58:28.677Z,14.02
2023-05-20T22:00:55.963Z,13.99
2023-05-20T22:03:23.431Z,13.97
2023-05-20T22:05:50.824Z,13.96
2023-05-20T22:08:19.049Z,13.93
2023-05-20T22:10:47.095Z,13.92
2023-05-20T22:13:14.779Z,13.90
2023-05-20T22:15:42.192Z,13.89
2023-05-20T22:18:09.623Z,13.90
2023-05-20T22:20:38.659Z,13.91
2023-05-20T22:23:05.906Z,13.92
2023-05-20T22:25:33.236Z,13.89
2023-05-20T22:28:01.400Z,13.86
2023-05-20T22:30:28.978Z,13.81
2023-05-20T22:32:58.395Z,13.78
2023-05-20T22:35:25.906Z,13.75
2023-05-20T22:37:54.843Z,13.72
2023-05-20T22:40:22.228Z,13.70
2023-05-20T22:42:49.485Z,13.65
2023-05-20T22:45:16.765Z,13.61
2023-05-20T22:47:45.801Z,13.57
2023-05-20T22:50:13.672Z,13.56
2023-05-20T22:52:41.533Z,13.55
2023-05-20T22:55:09.300Z,13.54
2023-05-20T22:57:37.159Z,13.53
2023-05-20T23:00:07.697Z,13.53
2023-05-20T23:02:35.302Z,13.54
2023-05-20T23:05:04.170Z,13.53
2023-05-20T23:07:32.004Z,13.53
2023-05-20T23:09:59.276Z,13.53
2023-05-20T23:12:26.730Z,13.53
2023-05-20T23:14:53.941Z,13.54
2023-05-20T23:17:21.501Z,13.55
2023-05-20T23:19:48.827Z,13.56
2023-05-20T23:22:16.415Z,13.57
2023-05-20T23:24:43.770Z,13.58
2023-05-20T23:27:11.171Z,13.58
2023-05-20T23:29:38.380Z,13.59
2023-05-20T23:32:06.123Z,13.57
2023-05-20T23:34:33.956Z,13.58
2023-05-20T23:37:01.216Z,13.59
2023-05-20T23:39:28.403Z,13.59
2023-05-20T23:41:55.710Z,13.60
2023-05-20T23:44:23.050Z,13.62
2023-05-20T23:46:51.050Z,13.63
2023-05-20T23:49:18.583Z,13.63
2023-05-20T23:51:45.847Z,13.63
2023-05-20T23:54:16.282Z,13.63
2023-05-20T23:56:43.920Z,13.64
2023-05-20T23:59:11.448Z,13.61
